createdAt,value
2018-06-16T00:07:43.004Z,91.10
2018-06-16T00:11:47.301Z,91.40
2018-06-16T00:15:51.556Z,91.60
2018-06-16T00:19:55.783Z,91.40
2018-06-16T00:24:00.098Z,91.40
2018-06-16T00:28:04.372Z,90.90
2018-06-16T00:32:08.799Z,91.30
2018-06-16T00:36:13.050Z,91.40
2018-06-16T00:40:17.468Z,91.60
2018-06-16T00:44:21.713Z,91.10
2018-06-16T00:48:25.970Z,90.80
2018-06-16T00:52:30.217Z,91.50
2018-06-16T00:56:34.556Z,91.60
2018-06-16T01:00:38.798Z,92.10
2018-06-16T01:04:43.051Z,92.40
2018-06-16T01:08:47.492Z,91.60
2018-06-16T01:12:51.694Z,91.80
2018-06-16T01:16:56.063Z,92.00
2018-06-16T01:21:00.271Z,91.40
2018-06-16T01:25:04.674Z,91.90
2018-06-16T01:29:09.101Z,91.90
2018-06-16T01:33:13.469Z,92.20
2018-06-16T01:41:21.688Z,92.30
2018-06-16T01:45:25.929Z,92.80
2018-06-16T01:49:30.380Z,92.80
2018-06-16T01:53:34.616Z,92.80
2018-06-16T02:01:42.916Z,92.80
2018-06-16T02:05:47.275Z,93.10
2018-06-16T02:09:51.491Z,92.80
2018-06-16T02:13:55.825Z,92.80
2018-06-16T02:18:00.036Z,92.80
2018-06-16T02:22:04.524Z,92.80
2018-06-16T02:26:08.902Z,92.80
2018-06-16T02:30:13.294Z,93.30
2018-06-16T02:34:17.493Z,93.20
2018-06-16T02:38:21.765Z,93.20
2018-06-16T02:46:29.960Z,93.50
2018-06-16T02:50:34.284Z,94.00
2018-06-16T02:54:38.549Z,94.10
2018-06-16T02:58:42.763Z,93.80
2018-06-16T03:02:47.099Z,94.30
2018-06-16T03:06:51.287Z,94.20
2018-06-16T03:10:55.869Z,94.60
2018-06-16T03:15:00.178Z,94.80
2018-06-16T03:19:04.510Z,95.10
2018-06-16T03:23:08.716Z,94.90
2018-06-16T03:27:12.942Z,94.80
2018-06-16T03:31:17.186Z,94.60
2018-06-16T03:35:21.806Z,94.50
2018-06-16T03:43:29.908Z,94.30
2018-06-16T03:47:34.238Z,94.10
2018-06-16T03:51:38.635Z,94.10
2018-06-16T03:55:42.892Z,93.80
2018-06-16T03:59:48.334Z,93.70
2018-06-16T04:03:53.150Z,93.50
2018-06-16T04:07:57.378Z,93.50
2018-06-16T04:12:01.839Z,93.20
2018-06-16T04:16:06.157Z,93.10
2018-06-16T04:20:10.840Z,93.00
2018-06-16T04:24:15.139Z,92.50
2018-06-16T04:28:19.311Z,92.20
2018-06-16T04:32:23.601Z,92.40
2018-06-16T04:36:27.967Z,91.10
2018-06-16T04:40:32.185Z,91.00
2018-06-16T04:44:36.485Z,91.90
2018-06-16T04:48:40.761Z,90.20
2018-06-16T04:52:44.963Z,90.70
2018-06-16T04:56:49.282Z,89.70
2018-06-16T05:00:53.720Z,88.30
2018-06-16T05:04:57.927Z,88.50
2018-06-16T05:09:03.604Z,87.20
2018-06-16T05:13:07.788Z,87.20
2018-06-16T05:17:12.375Z,84.80
2018-06-16T05:21:16.737Z,78.90
2018-06-16T05:25:20.993Z,76.10
2018-06-16T05:29:25.576Z,77.50
2018-06-16T05:33:29.732Z,81.40
2018-06-16T05:37:33.953Z,79.50
2018-06-16T05:41:38.342Z,74.80
2018-06-16T05:45:42.814Z,71.70
2018-06-16T05:49:47.308Z,69.40
2018-06-16T05:53:51.620Z,68.70
2018-06-16T05:57:55.837Z,67.50
2018-06-16T06:02:00.070Z,66.80
2018-06-16T06:06:04.915Z,64.40
2018-06-16T06:10:10.122Z,65.10
2018-06-16T06:14:15.540Z,64.80
2018-06-16T06:18:20.164Z,64.70
2018-06-16T06:22:24.621Z,66.10
2018-06-16T06:26:29.179Z,64.80
2018-06-16T06:34:38.062Z,63.20
2018-06-16T06:38:42.502Z,63.30
2018-06-16T06:42:46.793Z,63.80
2018-06-16T06:46:51.023Z,60.40
2018-06-16T06:50:55.533Z,60.30
2018-06-16T06:55:01.003Z,63.80
2018-06-16T06:59:05.245Z,63.70
2018-06-16T07:03:09.501Z,58.50
2018-06-16T07:07:13.790Z,59.50
2018-06-16T07:11:18.058Z,59.30
2018-06-16T07:19:26.069Z,57.80
2018-06-16T07:23:30.332Z,56.30
2018-06-16T07:27:34.679Z,56.80
2018-06-16T07:31:38.944Z,56.70
2018-06-16T07:35:43.354Z,57.20
2018-06-16T07:39:47.741Z,58.40
2018-06-16T07:43:52.031Z,54.90
2018-06-16T07:47:56.601Z,54.60
2018-06-16T07:52:01.063Z,55.20
2018-06-16T07:56:05.441Z,54.50
2018-06-16T08:00:09.936Z,56.50
2018-06-16T08:04:14.376Z,54.80
2018-06-16T08:08:19.102Z,54.70
2018-06-16T08:12:23.850Z,54.40
2018-06-16T08:16:28.396Z,55.30
2018-06-16T08:20:33.619Z,53.00
2018-06-16T08:24:38.668Z,53.50
2018-06-16T08:28:43.371Z,51.20
2018-06-16T08:32:48.353Z,52.70
2018-06-16T08:36:53.404Z,55.70
2018-06-16T08:40:58.800Z,54.40
2018-06-16T08:49:07.971Z,51.40
2018-06-16T08:57:17.004Z,48.20
2018-06-16T09:01:21.733Z,44.90
2018-06-16T09:05:26.249Z,46.80
2018-06-16T09:09:30.570Z,48.00
2018-06-16T09:13:39.407Z,46.30
2018-06-16T09:17:44.166Z,46.70
2018-06-16T09:21:48.646Z,48.10
2018-06-16T09:25:53.126Z,50.10
2018-06-16T09:29:57.918Z,50.70
2018-06-16T09:34:02.709Z,59.00
2018-06-16T09:38:07.581Z,55.70
2018-06-16T09:46:17.420Z,67.30
2018-06-16T09:50:22.332Z,69.00
2018-06-16T09:54:26.976Z,72.70
2018-06-16T09:58:31.498Z,70.00
2018-06-16T10:02:36.940Z,69.70
2018-06-16T10:06:42.178Z,65.80
2018-06-16T10:10:46.550Z,68.50
2018-06-16T10:14:51.101Z,68.00
2018-06-16T10:18:55.433Z,64.00
2018-06-16T10:23:00.454Z,59.50
2018-06-16T10:27:05.211Z,58.30
2018-06-16T10:31:10.383Z,53.70
2018-06-16T10:35:15.832Z,53.00
2018-06-16T10:39:21.040Z,50.60
2018-06-16T10:43:25.495Z,50.30
2018-06-16T10:47:30.318Z,48.20
2018-06-16T10:51:34.873Z,48.40
2018-06-16T10:55:39.496Z,50.10
2018-06-16T10:59:44.333Z,50.30
2018-06-16T11:03:48.863Z,53.20
2018-06-16T11:07:53.538Z,58.00
2018-06-16T11:11:58.528Z,60.40
2018-06-16T11:16:02.965Z,63.60
2018-06-16T11:20:08.213Z,66.50
2018-06-16T11:28:21.433Z,72.20
2018-06-16T11:32:26.014Z,75.50
2018-06-16T11:36:31.148Z,73.60
2018-06-16T11:44:40.562Z,76.90
2018-06-16T11:48:45.271Z,76.10
2018-06-16T11:52:49.805Z,79.30
2018-06-16T11:56:55.702Z,81.50
2018-06-16T12:01:00.724Z,83.70
2018-06-16T12:05:09.841Z,84.80
2018-06-16T12:09:14.850Z,84.90
2018-06-16T12:13:20.728Z,86.30
2018-06-16T12:17:25.093Z,86.30
2018-06-16T12:21:29.534Z,86.80
2018-06-16T12:25:34.126Z,86.10
2018-06-16T12:29:38.695Z,86.90
2018-06-16T12:33:44.065Z,90.00
2018-06-16T12:37:48.731Z,88.50
2018-06-16T12:41:53.499Z,88.30
2018-06-16T12:45:57.923Z,85.00
2018-06-16T12:50:02.100Z,85.80
2018-06-16T12:54:06.808Z,85.20
2018-06-16T12:58:11.262Z,87.00
2018-06-16T13:02:15.550Z,88.00
2018-06-16T13:06:20.200Z,83.20
2018-06-16T13:10:25.450Z,82.40
2018-06-16T13:14:30.275Z,80.40
2018-06-16T13:18:34.932Z,81.30
2018-06-16T13:26:43.135Z,83.00
2018-06-16T13:30:47.937Z,81.80
2018-06-16T13:38:55.995Z,84.70
2018-06-16T13:43:01.120Z,82.80
2018-06-16T13:47:06.307Z,81.80
2018-06-16T13:51:11.386Z,80.70
2018-06-16T13:55:15.869Z,78.70
2018-06-16T13:59:20.376Z,80.70
2018-06-16T14:03:24.920Z,78.90
2018-06-16T14:07:29.813Z,76.40
2018-06-16T14:11:34.725Z,78.80
2018-06-16T14:15:39.205Z,75.40
2018-06-16T14:19:43.957Z,75.90
2018-06-16T14:23:48.487Z,70.30
2018-06-16T14:27:52.802Z,69.90
2018-06-16T14:31:58.536Z,71.90
2018-06-16T14:36:04.348Z,70.10
2018-06-16T14:40:09.493Z,67.50
2018-06-16T14:44:14.201Z,67.20
2018-06-16T14:48:20.061Z,67.00
2018-06-16T14:52:25.484Z,68.80
2018-06-16T14:56:30.640Z,67.90
2018-06-16T15:00:35.101Z,65.70
2018-06-16T15:04:40.617Z,64.10
2018-06-16T15:08:45.173Z,64.80
2018-06-16T15:12:50.580Z,64.90
2018-06-16T15:16:56.891Z,68.30
2018-06-16T15:21:01.412Z,64.70
2018-06-16T15:25:08.078Z,65.70
2018-06-16T15:29:15.998Z,65.40
2018-06-16T15:33:21.287Z,62.50
2018-06-16T15:37:25.789Z,62.50
2018-06-16T15:41:30.831Z,62.40
2018-06-16T15:45:35.324Z,62.50
2018-06-16T15:49:40.152Z,65.10
2018-06-16T15:53:45.807Z,63.60
2018-06-16T15:57:50.952Z,66.10
2018-06-16T16:01:55.919Z,63.70
2018-06-16T16:06:00.803Z,63.40
2018-06-16T16:10:05.224Z,63.30
2018-06-16T16:14:10.848Z,62.30
2018-06-16T16:18:15.352Z,63.00
2018-06-16T16:22:20.186Z,64.80
2018-06-16T16:26:24.807Z,63.00
2018-06-16T16:30:29.341Z,62.80
2018-06-16T16:42:44.098Z,68.60
2018-06-16T16:46:48.592Z,67.30
2018-06-16T16:50:53.307Z,68.30
2018-06-16T16:55:00.144Z,72.30
2018-06-16T16:59:05.914Z,74.30
2018-06-16T17:03:10.944Z,73.60
2018-06-16T17:11:19.746Z,72.90
2018-06-16T17:15:24.381Z,73.40
2018-06-16T17:19:29.140Z,74.50
2018-06-16T17:23:33.988Z,74.60
2018-06-16T17:27:39.896Z,77.20
2018-06-16T17:31:44.819Z,77.30
2018-06-16T17:35:49.618Z,79.40
2018-06-16T17:39:54.291Z,82.30
2018-06-16T17:43:58.979Z,82.10
2018-06-16T17:48:03.370Z,83.50
2018-06-16T17:52:08.110Z,84.30
2018-06-16T17:56:12.723Z,86.30
2018-06-16T18:00:17.196Z,87.30
2018-06-16T18:04:21.427Z,86.40
2018-06-16T18:08:27.582Z,88.70
2018-06-16T18:12:37.152Z,90.10
2018-06-16T18:16:41.883Z,90.40
2018-06-16T18:20:46.521Z,90.40
2018-06-16T18:28:57.221Z,92.10
2018-06-16T18:33:01.906Z,92.30
2018-06-16T18:37:06.477Z,92.30
2018-06-16T18:41:11.378Z,93.40
2018-06-16T18:45:16.495Z,94.20
2018-06-16T18:49:21.302Z,93.90
2018-06-16T18:53:27.151Z,94.50
2018-06-16T18:57:32.624Z,95.00
2018-06-16T19:05:42.944Z,95.80
2018-06-16T19:09:47.453Z,96.00
2018-06-16T19:13:51.914Z,96.40
2018-06-16T19:17:57.142Z,96.90
2018-06-16T19:22:01.954Z,96.90
2018-06-16T19:26:07.515Z,97.40
2018-06-16T19:30:12.253Z,97.70
2018-06-16T19:34:17.128Z,97.90
2018-06-16T19:38:23.370Z,97.60
2018-06-16T19:42:28.049Z,97.90
2018-06-16T19:46:32.447Z,98.00
2018-06-16T19:50:37.712Z,98.40
2018-06-16T19:54:43.317Z,98.50
2018-06-16T19:58:48.626Z,98.70
2018-06-16T20:02:53.305Z,98.90
2018-06-16T20:06:58.897Z,99.10
2018-06-16T20:11:03.871Z,99.20
2018-06-16T20:15:09.143Z,99.40
2018-06-16T20:19:13.782Z,99.30
2018-06-16T20:23:19.935Z,99.20
2018-06-16T20:27:25.149Z,99.40
2018-06-16T20:31:30.714Z,99.40
2018-06-16T20:35:35.863Z,99.50
2018-06-16T20:39:40.346Z,99.50
2018-06-16T20:43:45.184Z,99.40
2018-06-16T20:47:49.794Z,99.40
2018-06-16T20:51:54.545Z,99.30
2018-06-16T20:55:59.295Z,99.40
2018-06-16T21:00:04.199Z,99.40
2018-06-16T21:04:08.766Z,99.40
2018-06-16T21:08:13.203Z,99.40
2018-06-16T21:12:17.816Z,99.50
2018-06-16T21:16:22.522Z,99.50
2018-06-16T21:20:27.143Z,99.60
2018-06-16T21:24:32.172Z,99.60
2018-06-16T21:28:37.107Z,99.60
2018-06-16T21:32:41.837Z,99.60
2018-06-16T21:36:47.008Z,99.60
2018-06-16T21:44:57.047Z,99.70
2018-06-16T21:49:01.737Z,99.70
2018-06-16T21:53:06.489Z,99.60
2018-06-16T22:01:15.588Z,99.60
2018-06-16T22:05:24.021Z,99.60
2018-06-16T22:09:31.934Z,99.60
2018-06-16T22:13:36.536Z,99.60
2018-06-16T22:17:41.978Z,99.60
2018-06-16T22:21:46.430Z,99.70
2018-06-16T22:25:50.951Z,99.60
2018-06-16T22:29:55.432Z,99.60
2018-06-16T22:34:00.317Z,99.70
2018-06-16T22:38:06.092Z,99.70
2018-06-16T22:42:11.365Z,99.50
2018-06-16T22:46:16.783Z,99.50
2018-06-16T22:50:21.380Z,98.90
2018-06-16T22:54:26.734Z,99.00
2018-06-16T22:58:31.057Z,99.30
2018-06-16T23:02:38.920Z,99.50
2018-06-16T23:06:43.697Z,99.50
2018-06-16T23:10:48.331Z,99.60
2018-06-16T23:14:52.820Z,99.60
2018-06-16T23:18:57.461Z,99.90
2018-06-16T23:23:01.817Z,99.60
2018-06-16T23:27:07.009Z,99.60
2018-06-16T23:31:13.818Z,99.60
2018-06-16T23:35:18.298Z,99.40
2018-06-16T23:39:23.089Z,99.60
2018-06-16T23:43:27.450Z,99.60
2018-06-16T23:47:32.301Z,99.70
2018-06-16T23:51:36.592Z,99.60
2018-06-16T23:55:41.125Z,99.60
2018-06-16T23:59:47.916Z,99.60
